createdAt,value
2023-05-06T00:02:32.352Z,4.25
2023-05-06T00:07:33.850Z,6.68
2023-05-06T00:12:35.305Z,6.78
2023-05-06T00:17:37.776Z,2.78
2023-05-06T00:22:39.383Z,3.70
2023-05-06T00:27:40.847Z,3.03
2023-05-06T00:32:42.412Z,4.88
2023-05-06T00:37:50.925Z,4.90
2023-05-06T00:42:52.406Z,4.70
2023-05-06T00:47:54.323Z,8.13
2023-05-06T00:52:58.188Z,12.52
2023-05-06T00:57:59.899Z,3.97
2023-05-06T01:03:01.392Z,5.07
2023-05-06T01:08:21.431Z,5.82
2023-05-06T01:13:35.687Z,4.22
2023-05-06T01:18:38.468Z,5.72
2023-05-06T01:24:06.639Z,6.32
2023-05-06T01:29:08.083Z,6.07
2023-05-06T01:34:12.284Z,7.07
2023-05-06T01:39:18.660Z,7.55
2023-05-06T01:44:22.506Z,7.28
2023-05-06T01:49:26.256Z,6.50
2023-05-06T01:54:27.661Z,6.68
2023-05-06T01:59:29.640Z,5.25
2023-05-06T02:04:32.035Z,8.52
2023-05-06T02:09:33.492Z,8.30
2023-05-06T02:14:34.952Z,8.95
2023-05-06T02:19:36.418Z,6.50
2023-05-06T02:24:37.862Z,4.05
2023-05-06T02:29:39.380Z,10.23
2023-05-06T02:34:40.786Z,6.05
2023-05-06T02:39:42.347Z,7.18
2023-05-06T02:44:43.949Z,7.47
2023-05-06T02:49:45.355Z,5.18
2023-05-06T02:54:46.750Z,7.18
2023-05-06T02:59:48.200Z,6.03
2023-05-06T03:04:49.630Z,9.10
2023-05-06T03:09:51.050Z,12.48
2023-05-06T03:14:52.649Z,6.13
2023-05-06T03:19:54.194Z,9.70
2023-05-06T03:24:55.650Z,6.60
2023-05-06T03:29:57.094Z,8.65
2023-05-06T03:34:58.512Z,9.32
2023-05-06T03:40:00.721Z,9.82
2023-05-06T03:45:03.168Z,12.93
2023-05-06T03:50:05.014Z,17.40
2023-05-06T03:55:07.055Z,18.05
2023-05-06T04:00:09.316Z,11.25
2023-05-06T04:05:10.902Z,11.00
2023-05-06T04:10:12.626Z,11.77
2023-05-06T04:15:14.284Z,10.38
2023-05-06T04:20:16.247Z,11.18
2023-05-06T04:25:21.280Z,10.85
2023-05-06T04:30:22.813Z,16.15
2023-05-06T04:35:24.265Z,19.80
2023-05-06T04:40:27.548Z,14.85
2023-05-06T04:45:29.715Z,19.42
2023-05-06T04:50:32.068Z,19.58
2023-05-06T04:55:34.496Z,19.65
2023-05-06T05:00:35.933Z,12.25
2023-05-06T05:05:37.455Z,11.50
2023-05-06T05:10:42.299Z,12.45
2023-05-06T05:15:43.687Z,32.13
2023-05-06T05:20:45.146Z,36.67
2023-05-06T05:25:46.689Z,36.15
2023-05-06T05:30:48.188Z,40.65
2023-05-06T05:35:49.690Z,39.53
2023-05-06T05:40:51.437Z,38.75
2023-05-06T05:45:52.886Z,46.53
2023-05-06T05:50:54.496Z,49.65
2023-05-06T05:55:56.168Z,57.72
2023-05-06T06:00:57.590Z,60.28
2023-05-06T06:05:59.246Z,69.28
2023-05-06T06:11:02.062Z,60.42
2023-05-06T06:16:04.393Z,63.72
2023-05-06T06:21:05.935Z,58.05
2023-05-06T06:26:07.343Z,51.15
2023-05-06T06:31:08.806Z,47.20
2023-05-06T06:36:10.583Z,45.00
2023-05-06T06:41:12.001Z,42.58
2023-05-06T06:46:13.432Z,39.47
2023-05-06T06:51:14.906Z,40.45
2023-05-06T06:56:16.504Z,37.28
2023-05-06T07:01:18.167Z,35.70
2023-05-06T07:06:19.603Z,33.20
2023-05-06T07:11:21.263Z,36.60
2023-05-06T07:16:22.725Z,32.83
2023-05-06T07:21:24.425Z,34.28
2023-05-06T07:26:26.279Z,33.15
2023-05-06T07:31:27.792Z,33.75
2023-05-06T07:36:29.402Z,37.30
2023-05-06T07:41:30.807Z,33.58
2023-05-06T07:46:32.700Z,32.17
2023-05-06T07:51:34.278Z,31.23
2023-05-06T07:56:35.824Z,31.77
2023-05-06T08:01:37.257Z,32.10
2023-05-06T08:06:38.688Z,25.25
2023-05-06T08:11:40.167Z,26.50
2023-05-06T08:16:41.796Z,26.33
2023-05-06T08:21:43.588Z,25.35
2023-05-06T08:26:45.235Z,24.08
2023-05-06T08:31:47.264Z,24.58
2023-05-06T08:36:49.240Z,21.77
2023-05-06T08:41:52.597Z,22.45
2023-05-06T08:46:54.619Z,21.55
2023-05-06T08:51:57.181Z,21.92
2023-05-06T08:57:00.067Z,22.45
2023-05-06T09:02:02.419Z,20.52
2023-05-06T09:07:03.887Z,20.73
2023-05-06T09:12:11.102Z,20.58
2023-05-06T09:17:23.831Z,19.42
2023-05-06T09:22:30.484Z,23.30
2023-05-06T09:27:34.951Z,21.55
2023-05-06T09:32:39.266Z,22.85
2023-05-06T09:37:41.647Z,19.73
2023-05-06T09:42:44.019Z,18.33
2023-05-06T09:47:46.748Z,18.73
2023-05-06T09:52:49.824Z,20.20
2023-05-06T09:57:52.108Z,13.60
2023-05-06T10:02:54.627Z,15.77
2023-05-06T10:07:57.238Z,11.32
2023-05-06T10:12:58.907Z,17.50
2023-05-06T10:18:01.743Z,18.15
2023-05-06T10:23:16.837Z,18.67
2023-05-06T10:28:21.049Z,13.85
2023-05-06T10:33:31.370Z,14.35
2023-05-06T10:38:36.217Z,16.05
2023-05-06T10:43:45.342Z,10.93
2023-05-06T10:49:11.725Z,12.35
2023-05-06T10:54:19.376Z,9.80
2023-05-06T10:59:26.972Z,8.85
2023-05-06T11:04:30.520Z,7.45
2023-05-06T11:09:31.937Z,8.52
2023-05-06T11:14:37.273Z,9.43
2023-05-06T11:19:40.031Z,13.10
2023-05-06T11:24:43.642Z,12.30
2023-05-06T11:29:45.487Z,9.30
2023-05-06T11:34:47.270Z,8.35
2023-05-06T11:39:49.165Z,6.80
2023-05-06T11:44:50.724Z,7.85
2023-05-06T11:49:54.442Z,8.27
2023-05-06T11:54:55.951Z,7.00
2023-05-06T11:59:57.489Z,11.10
2023-05-06T12:04:59.108Z,6.10
2023-05-06T12:10:04.153Z,6.10
2023-05-06T12:15:06.973Z,7.30
2023-05-06T12:20:11.094Z,5.50
2023-05-06T12:25:14.896Z,6.65
2023-05-06T12:30:28.361Z,6.50
2023-05-06T12:35:31.986Z,6.90
2023-05-06T12:40:33.598Z,5.30
2023-05-06T12:45:35.346Z,5.28
2023-05-06T12:50:40.025Z,3.58
2023-05-06T12:55:42.329Z,3.03
2023-05-06T13:00:43.980Z,3.75
2023-05-06T13:05:48.294Z,4.97
2023-05-06T13:10:49.772Z,4.03
2023-05-06T13:15:53.161Z,6.05
2023-05-06T13:20:54.720Z,5.93
2023-05-06T13:26:04.129Z,3.20
2023-05-06T13:31:07.782Z,5.25
2023-05-06T13:36:09.651Z,3.35
2023-05-06T13:41:11.220Z,7.47
2023-05-06T13:46:12.714Z,3.58
2023-05-06T13:51:16.580Z,3.45
2023-05-06T13:56:18.180Z,2.60
2023-05-06T14:01:24.284Z,7.57
2023-05-06T14:06:27.496Z,4.78
2023-05-06T14:11:29.263Z,5.70
2023-05-06T14:16:30.813Z,3.83
2023-05-06T14:21:32.419Z,2.47
2023-05-06T14:26:35.036Z,3.58
2023-05-06T14:31:36.635Z,7.18
2023-05-06T14:36:38.181Z,2.90
2023-05-06T14:41:39.972Z,6.95
2023-05-06T14:46:41.682Z,2.85
2023-05-06T14:51:44.574Z,5.20
2023-05-06T14:56:46.883Z,3.65
2023-05-06T15:01:48.437Z,4.30
2023-05-06T15:06:50.030Z,6.40
2023-05-06T15:11:51.672Z,3.67
2023-05-06T15:16:56.850Z,5.93
2023-05-06T15:21:58.748Z,3.75
2023-05-06T15:27:00.734Z,4.43
2023-05-06T15:32:02.284Z,5.20
2023-05-06T15:37:04.288Z,2.60
2023-05-06T15:42:06.174Z,2.90
2023-05-06T15:47:07.657Z,3.97
2023-05-06T15:52:09.104Z,5.70
2023-05-06T15:57:11.914Z,3.30
2023-05-06T16:02:26.772Z,3.42
2023-05-06T16:07:29.917Z,1.92
2023-05-06T16:12:32.690Z,2.88
2023-05-06T16:17:37.686Z,5.15
2023-05-06T16:22:40.099Z,4.47
2023-05-06T16:27:42.022Z,5.50
2023-05-06T16:32:44.448Z,5.47
2023-05-06T16:37:46.247Z,4.63
2023-05-06T16:42:48.971Z,2.17
2023-05-06T16:47:50.727Z,3.50
2023-05-06T16:52:53.310Z,2.45
2023-05-06T16:57:55.067Z,5.35
2023-05-06T17:02:56.600Z,6.57
2023-05-06T17:07:58.250Z,5.03
2023-05-06T17:13:00.054Z,7.63
2023-05-06T17:18:01.647Z,3.25
2023-05-06T17:23:03.228Z,5.85
2023-05-06T17:28:04.693Z,4.95
2023-05-06T17:33:07.278Z,2.38
2023-05-06T17:38:11.887Z,3.50
2023-05-06T17:43:13.403Z,3.00
2023-05-06T17:48:14.947Z,2.45
2023-05-06T17:53:16.466Z,2.88
2023-05-06T17:58:19.239Z,6.75
2023-05-06T18:03:20.931Z,4.03
2023-05-06T18:08:22.475Z,5.43
2023-05-06T18:13:24.092Z,3.58
2023-05-06T18:18:25.685Z,2.20
2023-05-06T18:23:27.163Z,4.20
2023-05-06T18:28:28.851Z,2.33
2023-05-06T18:33:30.419Z,3.67
2023-05-06T18:38:31.829Z,3.03
2023-05-06T18:43:33.671Z,4.50
2023-05-06T18:48:35.134Z,3.80
2023-05-06T18:53:36.681Z,1.40
2023-05-06T18:58:39.312Z,1.52
2023-05-06T19:03:41.825Z,1.83
2023-05-06T19:08:43.487Z,1.60
2023-05-06T19:13:46.278Z,2.92
2023-05-06T19:18:48.041Z,2.72
2023-05-06T19:23:50.158Z,5.13
2023-05-06T19:28:54.227Z,6.25
2023-05-06T19:33:56.982Z,4.90
2023-05-06T19:38:58.809Z,4.70
2023-05-06T19:44:01.044Z,4.32
2023-05-06T19:49:02.683Z,2.90
2023-05-06T19:54:04.224Z,2.63
2023-05-06T19:59:05.786Z,5.07
2023-05-06T20:04:09.439Z,5.15
2023-05-06T20:09:12.295Z,3.60
2023-05-06T20:14:13.741Z,4.00
2023-05-06T20:19:15.353Z,3.22
2023-05-06T20:24:17.039Z,3.83
2023-05-06T20:29:18.811Z,2.35
2023-05-06T20:34:20.373Z,2.72
2023-05-06T20:39:22.312Z,3.17
2023-05-06T20:44:25.004Z,2.92
2023-05-06T20:49:26.559Z,3.17
2023-05-06T20:54:27.974Z,4.57
2023-05-06T20:59:30.691Z,6.25
2023-05-06T21:04:37.276Z,4.20
2023-05-06T21:09:45.393Z,5.05
2023-05-06T21:14:48.963Z,5.05
2023-05-06T21:19:58.428Z,4.88
2023-05-06T21:25:02.719Z,7.95
2023-05-06T21:30:08.822Z,5.72
2023-05-06T21:40:14.930Z,5.05
2023-05-06T21:45:25.212Z,7.75
2023-05-06T21:50:36.757Z,6.03
2023-05-06T21:55:43.974Z,6.55
2023-05-06T22:00:48.453Z,6.43
2023-05-06T22:05:49.919Z,7.82
2023-05-06T22:10:51.454Z,5.90
2023-05-06T22:15:53.962Z,7.70
2023-05-06T22:20:58.679Z,8.60
2023-05-06T22:26:00.459Z,6.88
2023-05-06T22:31:02.090Z,7.55
2023-05-06T22:36:03.948Z,8.15
2023-05-06T22:41:05.433Z,8.23
2023-05-06T22:46:06.936Z,8.55
2023-05-06T22:51:08.479Z,10.85
2023-05-06T22:56:10.020Z,10.30
2023-05-06T23:01:12.009Z,9.93
2023-05-06T23:06:13.515Z,10.23
2023-05-06T23:11:15.009Z,10.63
2023-05-06T23:16:16.485Z,13.02
2023-05-06T23:21:18.037Z,12.20
2023-05-06T23:26:19.591Z,10.60
2023-05-06T23:31:21.196Z,9.18
2023-05-06T23:36:22.717Z,11.27
2023-05-06T23:41:25.404Z,10.95
2023-05-06T23:46:26.960Z,11.88
2023-05-06T23:51:28.440Z,12.45
2023-05-06T23:56:29.878Z,11.90
